Terminal Aerodrome Forecast
Issued by NWS Nashville, TN

Home | Current Version | Previous Version | Text Only | Print | Product List | Glossary On
Versions: 1 2 3 4 5 6 7 8 9 10 11 12 13 14 15 16
345
FTUS44 KOHX 271132
TAFCSV
TAF
KCSV 271132Z 2712/2812 00000KT 3SM BR SKC
     FM271300 VRB03KT P6SM SCT050 BKN250 PROB30 2722/2802 6SM -TSRA
      BKN050CB
     FM280200 VRB02KT P6SM SCT060 BKN250
     FM280500 00000KT 3SM BR SKC=

USA.gov is the U.S. government's official web portal to all federal, state and local government web resources and services.